Abilene, Texas
Current Conditions -  °F | °C
As of 6:52 AM on Wednesday 22 Oct 2014 (Local Time) from KABI Reporting Station
Broken Clouds Broken Clouds  
Wind Chill: 64°   Ceiling: 12000
Heat Index: 64°   Visibility: 10mi
Dew Point: 52°   Wind: 5mph
Humidity: 65%   Direction: 180°S
Pressure: 30.1"   Gusts: NA
Location:  32.45°N, 99.74°W
Report Text: KABI 221152Z 18004KT 10SM BKN120 18/11 A3010 RMK AO2 RAB35E47 SLP173 P0000 60000 T01780111 10189 20172 53010
Loading
Personal Weather Stations






























Interactive Weather Map
Tropical Storm Tracking
New forecast layout! Learn more

10-Day Weather Forecast

Advertisements
Track Severe Weather on mobile